sensor_id;sensor_type;location;lat;lon;timestamp;P1;durP1;ratioP1;P2;durP2;ratioP2
50851;SDS011;43953;45.508;-122.806;2022-11-13T00:00:07;4.35;;;3.92;;
50851;SDS011;43953;45.508;-122.806;2022-11-13T00:00:39;4.25;;;3.85;;
50851;SDS011;43953;45.508;-122.806;2022-11-13T00:01:12;6.22;;;3.70;;
50851;SDS011;43953;45.508;-122.806;2022-11-13T00:01:55;4.50;;;3.97;;
50851;SDS011;43953;45.508;-122.806;2022-11-13T00:02:27;4.20;;;3.80;;
50851;SDS011;43953;45.508;-122.806;2022-11-13T00:02:58;4.03;;;3.63;;
50851;SDS011;43953;45.508;-122.806;2022-11-13T00:03:30;4.55;;;4.00;;
50851;SDS011;43953;45.508;-122.806;2022-11-13T00:04:02;4.32;;;3.90;;
50851;SDS011;43953;45.508;-122.806;2022-11-13T00:04:34;4.70;;;4.10;;
50851;SDS011;43953;45.508;-122.806;2022-11-13T00:05:05;4.35;;;3.70;;
50851;SDS011;43953;45.508;-122.806;2022-11-13T00:05:37;4.30;;;3.75;;
50851;SDS011;43953;45.508;-122.806;2022-11-13T00:06:10;4.63;;;4.05;;
50851;SDS011;43953;45.508;-122.806;2022-11-13T00:06:42;6.07;;;3.92;;
50851;SDS011;43953;45.508;-122.806;2022-11-13T00:07:14;4.50;;;3.90;;
50851;SDS011;43953;45.508;-122.806;2022-11-13T00:07:46;4.28;;;3.80;;
50851;SDS011;43953;45.508;-122.806;2022-11-13T00:08:18;5.25;;;4.15;;
50851;SDS011;43953;45.508;-122.806;2022-11-13T00:08:52;4.88;;;4.05;;
50851;SDS011;43953;45.508;-122.806;2022-11-13T00:09:25;4.38;;;3.95;;
50851;SDS011;43953;45.508;-122.806;2022-11-13T00:09:57;4.72;;;4.07;;
50851;SDS011;43953;45.508;-122.806;2022-11-13T00:10:29;4.40;;;4.00;;
50851;SDS011;43953;45.508;-122.806;2022-11-13T00:11:04;5.07;;;4.07;;
50851;SDS011;43953;45.508;-122.806;2022-11-13T00:11:38;4.40;;;3.78;;
50851;SDS011;43953;45.508;-122.806;2022-11-13T00:12:10;4.30;;;3.90;;
50851;SDS011;43953;45.508;-122.806;2022-11-13T00:12:42;4.47;;;4.07;;
50851;SDS011;43953;45.508;-122.806;2022-11-13T00:13:13;4.85;;;4.03;;
50851;SDS011;43953;45.508;-122.806;2022-11-13T00:13:46;4.50;;;3.63;;
50851;SDS011;43953;45.508;-122.806;2022-11-13T00:14:18;4.88;;;4.00;;
50851;SDS011;43953;45.508;-122.806;2022-11-13T00:14:50;4.35;;;3.80;;
50851;SDS011;43953;45.508;-122.806;2022-11-13T00:15:22;4.53;;;4.07;;
50851;SDS011;43953;45.508;-122.806;2022-11-13T00:16:04;4.70;;;4.00;;
50851;SDS011;43953;45.508;-122.806;2022-11-13T00:16:38;4.47;;;4.07;;
50851;SDS011;43953;45.508;-122.806;2022-11-13T00:17:10;4.97;;;4.05;;
50851;SDS011;43953;45.508;-122.806;2022-11-13T00:17:41;3.97;;;3.58;;
50851;SDS011;43953;45.508;-122.806;2022-11-13T00:18:13;4.55;;;4.03;;
50851;SDS011;43953;45.508;-122.806;2022-11-13T00:18:45;4.45;;;4.05;;
50851;SDS011;43953;45.508;-122.806;2022-11-13T00:19:18;5.00;;;4.22;;
50851;SDS011;43953;45.508;-122.806;2022-11-13T00:19:49;4.93;;;3.90;;
50851;SDS011;43953;45.508;-122.806;2022-11-13T00:20:21;4.43;;;4.03;;
50851;SDS011;43953;45.508;-122.806;2022-11-13T00:20:53;5.13;;;4.07;;
50851;SDS011;43953;45.508;-122.806;2022-11-13T00:21:25;3.75;;;3.45;;
50851;SDS011;43953;45.508;-122.806;2022-11-13T00:21:57;4.22;;;3.83;;
50851;SDS011;43953;45.508;-122.806;2022-11-13T00:22:30;4.50;;;4.10;;
50851;SDS011;43953;45.508;-122.806;2022-11-13T00:23:01;4.30;;;3.90;;
50851;SDS011;43953;45.508;-122.806;2022-11-13T00:23:34;4.35;;;3.80;;
50851;SDS011;43953;45.508;-122.806;2022-11-13T00:24:06;4.82;;;4.13;;
50851;SDS011;43953;45.508;-122.806;2022-11-13T00:24:38;4.63;;;4.07;;
50851;SDS011;43953;45.508;-122.806;2022-11-13T00:25:10;4.07;;;3.67;;
50851;SDS011;43953;45.508;-122.806;2022-11-13T00:25:42;4.78;;;4.15;;
50851;SDS011;43953;45.508;-122.806;2022-11-13T00:26:15;4.55;;;4.13;;
50851;SDS011;43953;45.508;-122.806;2022-11-13T00:26:48;5.45;;;4.18;;
50851;SDS011;43953;45.508;-122.806;2022-11-13T00:27:20;4.72;;;4.13;;
50851;SDS011;43953;45.508;-122.806;2022-11-13T00:27:52;4.95;;;4.13;;
50851;SDS011;43953;45.508;-122.806;2022-11-13T00:28:23;4.65;;;4.22;;
50851;SDS011;43953;45.508;-122.806;2022-11-13T00:28:56;5.28;;;4.28;;
50851;SDS011;43953;45.508;-122.806;2022-11-13T00:29:29;5.63;;;4.43;;
50851;SDS011;43953;45.508;-122.806;2022-11-13T00:30:02;5.72;;;3.97;;
50851;SDS011;43953;45.508;-122.806;2022-11-13T00:30:34;4.72;;;3.95;;
50851;SDS011;43953;45.508;-122.806;2022-11-13T00:31:10;4.47;;;3.83;;
50851;SDS011;43953;45.508;-122.806;2022-11-13T00:31:43;4.90;;;4.00;;
50851;SDS011;43953;45.508;-122.806;2022-11-13T00:32:15;4.28;;;3.88;;
50851;SDS011;43953;45.508;-122.806;2022-11-13T00:32:47;5.38;;;4.20;;
50851;SDS011;43953;45.508;-122.806;2022-11-13T00:33:18;4.55;;;4.15;;
50851;SDS011;43953;45.508;-122.806;2022-11-13T00:33:50;4.50;;;3.92;;
50851;SDS011;43953;45.508;-122.806;2022-11-13T00:34:22;4.47;;;4.03;;
50851;SDS011;43953;45.508;-122.806;2022-11-13T00:34:54;4.80;;;4.15;;
50851;SDS011;43953;45.508;-122.806;2022-11-13T00:35:26;5.13;;;4.63;;
50851;SDS011;43953;45.508;-122.806;2022-11-13T00:36:05;5.30;;;4.03;;
50851;SDS011;43953;45.508;-122.806;2022-11-13T00:36:38;5.93;;;4.47;;
50851;SDS011;43953;45.508;-122.806;2022-11-13T00:37:10;9.75;;;4.03;;
50851;SDS011;43953;45.508;-122.806;2022-11-13T00:37:42;9.45;;;4.35;;
50851;SDS011;43953;45.508;-122.806;2022-11-13T00:38:13;6.85;;;3.78;;
50851;SDS011;43953;45.508;-122.806;2022-11-13T00:38:45;4.60;;;3.80;;
50851;SDS011;43953;45.508;-122.806;2022-11-13T00:39:17;6.35;;;4.05;;
50851;SDS011;43953;45.508;-122.806;2022-11-13T00:39:49;7.30;;;4.50;;
50851;SDS011;43953;45.508;-122.806;2022-11-13T00:40:20;6.18;;;4.35;;
50851;SDS011;43953;45.508;-122.806;2022-11-13T00:40:52;6.38;;;4.13;;
50851;SDS011;43953;45.508;-122.806;2022-11-13T00:41:24;5.78;;;4.00;;
50851;SDS011;43953;45.508;-122.806;2022-11-13T00:41:56;5.13;;;4.43;;
50851;SDS011;43953;45.508;-122.806;2022-11-13T00:42:27;5.35;;;3.72;;
50851;SDS011;43953;45.508;-122.806;2022-11-13T00:42:59;6.35;;;4.20;;
50851;SDS011;43953;45.508;-122.806;2022-11-13T00:43:31;5.28;;;4.25;;
50851;SDS011;43953;45.508;-122.806;2022-11-13T00:44:03;4.60;;;3.90;;
50851;SDS011;43953;45.508;-122.806;2022-11-13T00:44:35;5.38;;;3.80;;
50851;SDS011;43953;45.508;-122.806;2022-11-13T00:45:06;4.95;;;4.35;;
50851;SDS011;43953;45.508;-122.806;2022-11-13T00:45:38;5.07;;;4.47;;
50851;SDS011;43953;45.508;-122.806;2022-11-13T00:46:11;4.82;;;3.95;;
50851;SDS011;43953;45.508;-122.806;2022-11-13T00:46:43;4.85;;;4.32;;
50851;SDS011;43953;45.508;-122.806;2022-11-13T00:47:14;5.15;;;4.03;;
50851;SDS011;43953;45.508;-122.806;2022-11-13T00:47:46;4.97;;;4.18;;
50851;SDS011;43953;45.508;-122.806;2022-11-13T00:48:18;5.97;;;4.20;;
50851;SDS011;43953;45.508;-122.806;2022-11-13T00:48:50;6.45;;;4.13;;
50851;SDS011;43953;45.508;-122.806;2022-11-13T00:49:21;5.28;;;3.90;;
50851;SDS011;43953;45.508;-122.806;2022-11-13T00:49:53;5.75;;;4.53;;
50851;SDS011;43953;45.508;-122.806;2022-11-13T00:50:25;5.75;;;4.88;;
50851;SDS011;43953;45.508;-122.806;2022-11-13T00:50:57;5.13;;;4.05;;
50851;SDS011;43953;45.508;-122.806;2022-11-13T00:51:28;5.15;;;4.10;;
50851;SDS011;43953;45.508;-122.806;2022-11-13T00:52:00;5.82;;;4.30;;
50851;SDS011;43953;45.508;-122.806;2022-11-13T00:52:33;5.40;;;4.57;;
50851;SDS011;43953;45.508;-122.806;2022-11-13T00:53:05;4.80;;;4.22;;
50851;SDS011;43953;45.508;-122.806;2022-11-13T00:53:36;5.50;;;4.13;;
50851;SDS011;43953;45.508;-122.806;2022-11-13T00:54:08;4.68;;;4.10;;
50851;SDS011;43953;45.508;-122.806;2022-11-13T00:54:40;4.90;;;4.13;;
50851;SDS011;43953;45.508;-122.806;2022-11-13T00:55:12;6.00;;;4.40;;
50851;SDS011;43953;45.508;-122.806;2022-11-13T00:55:43;6.25;;;4.60;;
50851;SDS011;43953;45.508;-122.806;2022-11-13T00:56:15;5.65;;;4.10;;
50851;SDS011;43953;45.508;-122.806;2022-11-13T00:56:47;5.05;;;4.25;;
50851;SDS011;43953;45.508;-122.806;2022-11-13T00:57:19;6.03;;;4.40;;
50851;SDS011;43953;45.508;-122.806;2022-11-13T00:57:50;5.13;;;4.63;;
50851;SDS011;43953;45.508;-122.806;2022-11-13T00:58:22;5.05;;;4.32;;
50851;SDS011;43953;45.508;-122.806;2022-11-13T00:58:54;5.22;;;4.70;;
50851;SDS011;43953;45.508;-122.806;2022-11-13T00:59:26;6.05;;;4.75;;
50851;SDS011;43953;45.508;-122.806;2022-11-13T00:59:57;5.88;;;4.75;;
50851;SDS011;43953;45.508;-122.806;2022-11-13T01:00:30;5.55;;;4.90;;
50851;SDS011;43953;45.508;-122.806;2022-11-13T01:01:03;5.20;;;4.70;;
50851;SDS011;43953;45.508;-122.806;2022-11-13T01:01:37;5.10;;;4.60;;
50851;SDS011;43953;45.508;-122.806;2022-11-13T01:02:09;5.10;;;4.60;;
50851;SDS011;43953;45.508;-122.806;2022-11-13T01:02:42;6.47;;;5.68;;
50851;SDS011;43953;45.508;-122.806;2022-11-13T01:03:14;6.20;;;5.60;;
50851;SDS011;43953;45.508;-122.806;2022-11-13T01:03:47;6.40;;;5.80;;
50851;SDS011;43953;45.508;-122.806;2022-11-13T01:04:19;7.47;;;6.68;;
50851;SDS011;43953;45.508;-122.806;2022-11-13T01:04:51;7.45;;;6.70;;
50851;SDS011;43953;45.508;-122.806;2022-11-13T01:05:23;7.68;;;6.22;;
50851;SDS011;43953;45.508;-122.806;2022-11-13T01:05:55;6.32;;;5.72;;
50851;SDS011;43953;45.508;-122.806;2022-11-13T01:06:27;7.97;;;6.75;;
50851;SDS011;43953;45.508;-122.806;2022-11-13T01:06:59;9.82;;;7.95;;
50851;SDS011;43953;45.508;-122.806;2022-11-13T01:07:31;9.30;;;8.00;;
50851;SDS011;43953;45.508;-122.806;2022-11-13T01:08:05;9.00;;;8.10;;
50851;SDS011;43953;45.508;-122.806;2022-11-13T01:08:37;9.55;;;8.32;;
50851;SDS011;43953;45.508;-122.806;2022-11-13T01:09:09;9.65;;;8.73;;
50851;SDS011;43953;45.508;-122.806;2022-11-13T01:09:40;10.15;;;9.02;;
50851;SDS011;43953;45.508;-122.806;2022-11-13T01:10:12;10.23;;;9.23;;
50851;SDS011;43953;45.508;-122.806;2022-11-13T01:10:45;10.65;;;9.15;;
50851;SDS011;43953;45.508;-122.806;2022-11-13T01:11:19;10.20;;;9.20;;
50851;SDS011;43953;45.508;-122.806;2022-11-13T01:11:53;10.70;;;9.60;;
50851;SDS011;43953;45.508;-122.806;2022-11-13T01:12:24;10.35;;;9.35;;
50851;SDS011;43953;45.508;-122.806;2022-11-13T01:12:56;10.55;;;9.38;;
50851;SDS011;43953;45.508;-122.806;2022-11-13T01:13:28;11.15;;;9.77;;
50851;SDS011;43953;45.508;-122.806;2022-11-13T01:13:59;11.18;;;10.07;;
50851;SDS011;43953;45.508;-122.806;2022-11-13T01:14:31;10.93;;;9.85;;
50851;SDS011;43953;45.508;-122.806;2022-11-13T01:15:03;11.32;;;10.23;;
50851;SDS011;43953;45.508;-122.806;2022-11-13T01:15:37;11.73;;;10.52;;
50851;SDS011;43953;45.508;-122.806;2022-11-13T01:16:11;11.93;;;10.05;;
50851;SDS011;43953;45.508;-122.806;2022-11-13T01:16:44;11.15;;;10.05;;
50851;SDS011;43953;45.508;-122.806;2022-11-13T01:17:16;11.38;;;10.20;;
50851;SDS011;43953;45.508;-122.806;2022-11-13T01:17:47;11.15;;;9.93;;
50851;SDS011;43953;45.508;-122.806;2022-11-13T01:18:20;11.20;;;10.10;;
50851;SDS011;43953;45.508;-122.806;2022-11-13T01:18:55;12.60;;;10.93;;
50851;SDS011;43953;45.508;-122.806;2022-11-13T01:19:27;11.40;;;10.27;;
50851;SDS011;43953;45.508;-122.806;2022-11-13T01:19:59;10.57;;;9.57;;
50851;SDS011;43953;45.508;-122.806;2022-11-13T01:20:30;10.15;;;9.20;;
50851;SDS011;43953;45.508;-122.806;2022-11-13T01:21:07;10.43;;;9.43;;
50851;SDS011;43953;45.508;-122.806;2022-11-13T01:21:41;10.40;;;9.30;;
50851;SDS011;43953;45.508;-122.806;2022-11-13T01:22:12;11.50;;;10.05;;
50851;SDS011;43953;45.508;-122.806;2022-11-13T01:22:44;10.25;;;9.25;;
50851;SDS011;43953;45.508;-122.806;2022-11-13T01:23:16;11.82;;;10.38;;
50851;SDS011;43953;45.508;-122.806;2022-11-13T01:23:48;10.43;;;9.43;;
50851;SDS011;43953;45.508;-122.806;2022-11-13T01:24:20;10.35;;;9.00;;
50851;SDS011;43953;45.508;-122.806;2022-11-13T01:24:51;9.68;;;8.68;;
50851;SDS011;43953;45.508;-122.806;2022-11-13T01:25:23;10.98;;;9.13;;
50851;SDS011;43953;45.508;-122.806;2022-11-13T01:26:19;10.20;;;8.65;;
50851;SDS011;43953;45.508;-122.806;2022-11-13T01:26:53;10.10;;;8.63;;
50851;SDS011;43953;45.508;-122.806;2022-11-13T01:27:25;10.23;;;8.23;;
50851;SDS011;43953;45.508;-122.806;2022-11-13T01:27:57;8.60;;;7.70;;
50851;SDS011;43953;45.508;-122.806;2022-11-13T01:28:28;9.10;;;7.82;;
50851;SDS011;43953;45.508;-122.806;2022-11-13T01:29:00;8.23;;;7.50;;
50851;SDS011;43953;45.508;-122.806;2022-11-13T01:29:32;8.38;;;7.47;;
50851;SDS011;43953;45.508;-122.806;2022-11-13T01:30:04;10.35;;;7.75;;
50851;SDS011;43953;45.508;-122.806;2022-11-13T01:30:37;8.70;;;7.35;;
50851;SDS011;43953;45.508;-122.806;2022-11-13T01:31:11;8.95;;;7.80;;
50851;SDS011;43953;45.508;-122.806;2022-11-13T01:31:45;8.43;;;7.63;;
50851;SDS011;43953;45.508;-122.806;2022-11-13T01:32:16;8.65;;;7.75;;
50851;SDS011;43953;45.508;-122.806;2022-11-13T01:32:48;8.60;;;7.30;;
50851;SDS011;43953;45.508;-122.806;2022-11-13T01:33:21;8.45;;;7.35;;
50851;SDS011;43953;45.508;-122.806;2022-11-13T01:33:52;8.50;;;6.95;;
50851;SDS011;43953;45.508;-122.806;2022-11-13T01:34:25;8.15;;;7.35;;
50851;SDS011;43953;45.508;-122.806;2022-11-13T01:34:56;7.70;;;6.70;;
50851;SDS011;43953;45.508;-122.806;2022-11-13T01:35:28;7.97;;;6.90;;
50851;SDS011;43953;45.508;-122.806;2022-11-13T01:36:01;8.23;;;6.97;;
50851;SDS011;43953;45.508;-122.806;2022-11-13T01:36:35;7.60;;;6.72;;
50851;SDS011;43953;45.508;-122.806;2022-11-13T01:37:06;9.23;;;6.55;;
50851;SDS011;43953;45.508;-122.806;2022-11-13T01:37:38;7.13;;;6.43;;
50851;SDS011;43953;45.508;-122.806;2022-11-13T01:38:10;7.13;;;6.38;;
50851;SDS011;43953;45.508;-122.806;2022-11-13T01:38:42;8.68;;;7.00;;
50851;SDS011;43953;45.508;-122.806;2022-11-13T01:39:13;7.60;;;6.80;;
50851;SDS011;43953;45.508;-122.806;2022-11-13T01:39:45;7.85;;;6.32;;
50851;SDS011;43953;45.508;-122.806;2022-11-13T01:40:17;7.72;;;6.78;;
50851;SDS011;43953;45.508;-122.806;2022-11-13T01:40:49;8.68;;;7.13;;
50851;SDS011;43953;45.508;-122.806;2022-11-13T01:41:57;8.52;;;6.78;;
50851;SDS011;43953;45.508;-122.806;2022-11-13T01:42:30;7.68;;;6.60;;
50851;SDS011;43953;45.508;-122.806;2022-11-13T01:43:36;8.68;;;7.13;;
50851;SDS011;43953;45.508;-122.806;2022-11-13T01:44:08;9.10;;;7.70;;
50851;SDS011;43953;45.508;-122.806;2022-11-13T01:46:44;7.95;;;7.05;;
50851;SDS011;43953;45.508;-122.806;2022-11-13T01:47:20;9.52;;;7.53;;
50851;SDS011;43953;45.508;-122.806;2022-11-13T01:47:53;9.00;;;7.80;;
50851;SDS011;43953;45.508;-122.806;2022-11-13T01:48:26;9.68;;;7.60;;
50851;SDS011;43953;45.508;-122.806;2022-11-13T01:49:48;9.05;;;7.55;;
50851;SDS011;43953;45.508;-122.806;2022-11-13T01:50:23;8.30;;;7.20;;
50851;SDS011;43953;45.508;-122.806;2022-11-13T01:50:55;8.05;;;6.78;;
50851;SDS011;43953;45.508;-122.806;2022-11-13T01:51:29;8.38;;;7.13;;
50851;SDS011;43953;45.508;-122.806;2022-11-13T01:52:21;8.27;;;6.88;;
50851;SDS011;43953;45.508;-122.806;2022-11-13T01:52:59;8.05;;;6.47;;
50851;SDS011;43953;45.508;-122.806;2022-11-13T01:53:31;8.00;;;6.68;;
50851;SDS011;43953;45.508;-122.806;2022-11-13T01:54:04;8.15;;;6.78;;
50851;SDS011;43953;45.508;-122.806;2022-11-13T01:54:43;8.55;;;6.93;;
50851;SDS011;43953;45.508;-122.806;2022-11-13T01:55:18;8.40;;;6.72;;
50851;SDS011;43953;45.508;-122.806;2022-11-13T01:55:50;8.27;;;6.72;;
50851;SDS011;43953;45.508;-122.806;2022-11-13T01:56:22;8.45;;;6.95;;
50851;SDS011;43953;45.508;-122.806;2022-11-13T01:56:54;7.95;;;6.30;;
50851;SDS011;43953;45.508;-122.806;2022-11-13T01:57:27;10.77;;;6.50;;
50851;SDS011;43953;45.508;-122.806;2022-11-13T01:57:59;8.13;;;6.90;;
50851;SDS011;43953;45.508;-122.806;2022-11-13T01:58:34;9.00;;;6.82;;
50851;SDS011;43953;45.508;-122.806;2022-11-13T01:59:10;8.45;;;7.53;;
50851;SDS011;43953;45.508;-122.806;2022-11-13T01:59:47;7.30;;;6.60;;
50851;SDS011;43953;45.508;-122.806;2022-11-13T02:00:27;8.35;;;6.93;;
50851;SDS011;43953;45.508;-122.806;2022-11-13T02:00:59;7.65;;;6.50;;
50851;SDS011;43953;45.508;-122.806;2022-11-13T02:01:31;8.10;;;6.63;;
50851;SDS011;43953;45.508;-122.806;2022-11-13T02:02:04;9.27;;;7.35;;
50851;SDS011;43953;45.508;-122.806;2022-11-13T02:02:36;8.40;;;6.68;;
50851;SDS011;43953;45.508;-122.806;2022-11-13T02:03:08;8.63;;;7.28;;
50851;SDS011;43953;45.508;-122.806;2022-11-13T02:03:40;7.97;;;6.70;;
50851;SDS011;43953;45.508;-122.806;2022-11-13T02:04:12;8.05;;;7.18;;
50851;SDS011;43953;45.508;-122.806;2022-11-13T02:04:44;8.30;;;7.15;;
50851;SDS011;43953;45.508;-122.806;2022-11-13T02:05:16;10.93;;;7.38;;
50851;SDS011;43953;45.508;-122.806;2022-11-13T02:05:48;9.18;;;7.43;;
50851;SDS011;43953;45.508;-122.806;2022-11-13T02:06:20;8.32;;;6.75;;
50851;SDS011;43953;45.508;-122.806;2022-11-13T02:06:59;9.98;;;7.47;;
50851;SDS011;43953;45.508;-122.806;2022-11-13T02:07:34;8.57;;;7.50;;
50851;SDS011;43953;45.508;-122.806;2022-11-13T02:08:06;9.68;;;6.95;;
50851;SDS011;43953;45.508;-122.806;2022-11-13T02:08:37;8.15;;;7.13;;
50851;SDS011;43953;45.508;-122.806;2022-11-13T02:09:09;8.10;;;7.20;;
50851;SDS011;43953;45.508;-122.806;2022-11-13T02:09:47;7.97;;;7.18;;
50851;SDS011;43953;45.508;-122.806;2022-11-13T02:10:20;8.65;;;6.95;;
50851;SDS011;43953;45.508;-122.806;2022-11-13T02:10:52;8.88;;;7.40;;
50851;SDS011;43953;45.508;-122.806;2022-11-13T02:11:24;10.32;;;6.97;;
50851;SDS011;43953;45.508;-122.806;2022-11-13T02:11:56;8.02;;;7.18;;
50851;SDS011;43953;45.508;-122.806;2022-11-13T02:13:05;8.73;;;7.50;;
50851;SDS011;43953;45.508;-122.806;2022-11-13T02:13:37;12.27;;;7.88;;
50851;SDS011;43953;45.508;-122.806;2022-11-13T02:14:09;9.05;;;7.60;;
50851;SDS011;43953;45.508;-122.806;2022-11-13T02:14:45;8.60;;;7.70;;
50851;SDS011;43953;45.508;-122.806;2022-11-13T02:15:20;10.15;;;7.22;;
50851;SDS011;43953;45.508;-122.806;2022-11-13T02:15:55;9.13;;;7.68;;
50851;SDS011;43953;45.508;-122.806;2022-11-13T02:16:28;9.32;;;7.60;;
50851;SDS011;43953;45.508;-122.806;2022-11-13T02:17:03;11.13;;;8.10;;
50851;SDS011;43953;45.508;-122.806;2022-11-13T02:17:41;8.35;;;7.50;;
50851;SDS011;43953;45.508;-122.806;2022-11-13T02:18:27;8.90;;;8.00;;
50851;SDS011;43953;45.508;-122.806;2022-11-13T02:19:05;10.35;;;8.68;;
50851;SDS011;43953;45.508;-122.806;2022-11-13T02:19:46;10.20;;;7.65;;
50851;SDS011;43953;45.508;-122.806;2022-11-13T02:20:44;9.32;;;7.72;;
50851;SDS011;43953;45.508;-122.806;2022-11-13T02:21:31;9.65;;;8.20;;
50851;SDS011;43953;45.508;-122.806;2022-11-13T02:24:32;11.32;;;8.30;;
50851;SDS011;43953;45.508;-122.806;2022-11-13T02:25:08;9.77;;;8.40;;
50851;SDS011;43953;45.508;-122.806;2022-11-13T02:25:41;9.55;;;8.27;;
50851;SDS011;43953;45.508;-122.806;2022-11-13T02:26:15;9.48;;;7.90;;
50851;SDS011;43953;45.508;-122.806;2022-11-13T02:26:50;9.68;;;8.07;;
50851;SDS011;43953;45.508;-122.806;2022-11-13T02:28:10;11.02;;;8.48;;
50851;SDS011;43953;45.508;-122.806;2022-11-13T02:28:42;9.32;;;8.38;;
50851;SDS011;43953;45.508;-122.806;2022-11-13T02:29:14;10.85;;;8.88;;
50851;SDS011;43953;45.508;-122.806;2022-11-13T02:29:46;10.57;;;8.77;;
50851;SDS011;43953;45.508;-122.806;2022-11-13T02:30:19;11.73;;;8.75;;
50851;SDS011;43953;45.508;-122.806;2022-11-13T02:30:51;10.68;;;9.13;;
50851;SDS011;43953;45.508;-122.806;2022-11-13T02:31:23;10.85;;;9.00;;
50851;SDS011;43953;45.508;-122.806;2022-11-13T02:31:55;10.27;;;8.52;;
50851;SDS011;43953;45.508;-122.806;2022-11-13T02:32:27;10.30;;;9.07;;
50851;SDS011;43953;45.508;-122.806;2022-11-13T02:32:59;12.82;;;9.45;;
50851;SDS011;43953;45.508;-122.806;2022-11-13T02:33:31;10.48;;;8.80;;
50851;SDS011;43953;45.508;-122.806;2022-11-13T02:34:03;11.38;;;8.93;;
50851;SDS011;43953;45.508;-122.806;2022-11-13T02:34:35;10.18;;;8.73;;
50851;SDS011;43953;45.508;-122.806;2022-11-13T02:35:07;10.85;;;9.40;;
50851;SDS011;43953;45.508;-122.806;2022-11-13T02:35:39;10.05;;;8.63;;
50851;SDS011;43953;45.508;-122.806;2022-11-13T02:36:11;9.50;;;8.55;;
50851;SDS011;43953;45.508;-122.806;2022-11-13T02:36:44;9.30;;;8.40;;
50851;SDS011;43953;45.508;-122.806;2022-11-13T02:37:16;12.80;;;9.73;;
50851;SDS011;43953;45.508;-122.806;2022-11-13T02:37:48;9.73;;;8.73;;
50851;SDS011;43953;45.508;-122.806;2022-11-13T02:38:20;10.85;;;9.45;;
50851;SDS011;43953;45.508;-122.806;2022-11-13T02:38:51;13.23;;;9.68;;
50851;SDS011;43953;45.508;-122.806;2022-11-13T02:39:26;10.45;;;9.35;;
50851;SDS011;43953;45.508;-122.806;2022-11-13T02:39:58;11.18;;;9.43;;
50851;SDS011;43953;45.508;-122.806;2022-11-13T02:40:30;11.65;;;9.98;;
50851;SDS011;43953;45.508;-122.806;2022-11-13T02:41:03;10.65;;;9.40;;
50851;SDS011;43953;45.508;-122.806;2022-11-13T02:41:35;13.73;;;9.90;;
50851;SDS011;43953;45.508;-122.806;2022-11-13T02:42:08;11.07;;;9.88;;
50851;SDS011;43953;45.508;-122.806;2022-11-13T02:42:39;11.43;;;9.77;;
50851;SDS011;43953;45.508;-122.806;2022-11-13T02:43:11;13.50;;;10.68;;
50851;SDS011;43953;45.508;-122.806;2022-11-13T02:43:43;11.27;;;10.07;;
50851;SDS011;43953;45.508;-122.806;2022-11-13T02:44:15;14.82;;;11.52;;
50851;SDS011;43953;45.508;-122.806;2022-11-13T02:44:46;13.98;;;12.05;;
50851;SDS011;43953;45.508;-122.806;2022-11-13T02:45:18;15.32;;;11.95;;
50851;SDS011;43953;45.508;-122.806;2022-11-13T02:45:50;15.35;;;12.93;;
50851;SDS011;43953;45.508;-122.806;2022-11-13T02:46:22;15.38;;;13.20;;
50851;SDS011;43953;45.508;-122.806;2022-11-13T02:46:54;15.73;;;12.65;;
50851;SDS011;43953;45.508;-122.806;2022-11-13T02:47:26;16.55;;;14.20;;
50851;SDS011;43953;45.508;-122.806;2022-11-13T02:47:59;16.98;;;14.20;;
50851;SDS011;43953;45.508;-122.806;2022-11-13T02:48:31;16.17;;;14.05;;
50851;SDS011;43953;45.508;-122.806;2022-11-13T02:49:03;17.73;;;14.40;;
50851;SDS011;43953;45.508;-122.806;2022-11-13T02:49:35;18.02;;;14.90;;
50851;SDS011;43953;45.508;-122.806;2022-11-13T02:50:07;20.27;;;16.02;;
50851;SDS011;43953;45.508;-122.806;2022-11-13T02:50:40;17.90;;;15.27;;
50851;SDS011;43953;45.508;-122.806;2022-11-13T02:51:12;19.63;;;15.05;;
50851;SDS011;43953;45.508;-122.806;2022-11-13T02:51:44;19.23;;;15.38;;
50851;SDS011;43953;45.508;-122.806;2022-11-13T02:52:15;18.65;;;15.80;;
50851;SDS011;43953;45.508;-122.806;2022-11-13T02:52:47;17.38;;;15.48;;
50851;SDS011;43953;45.508;-122.806;2022-11-13T02:53:19;18.63;;;15.68;;
50851;SDS011;43953;45.508;-122.806;2022-11-13T02:53:51;20.38;;;15.98;;
50851;SDS011;43953;45.508;-122.806;2022-11-13T02:54:23;19.77;;;16.40;;
50851;SDS011;43953;45.508;-122.806;2022-11-13T02:54:54;17.30;;;15.35;;
50851;SDS011;43953;45.508;-122.806;2022-11-13T02:55:26;18.40;;;15.48;;
50851;SDS011;43953;45.508;-122.806;2022-11-13T02:55:58;17.65;;;14.80;;
50851;SDS011;43953;45.508;-122.806;2022-11-13T02:56:30;18.50;;;15.30;;
50851;SDS011;43953;45.508;-122.806;2022-11-13T02:57:01;20.35;;;15.70;;
50851;SDS011;43953;45.508;-122.806;2022-11-13T02:57:33;17.25;;;15.15;;
50851;SDS011;43953;45.508;-122.806;2022-11-13T02:58:05;18.02;;;15.80;;
50851;SDS011;43953;45.508;-122.806;2022-11-13T02:58:37;17.35;;;15.38;;
50851;SDS011;43953;45.508;-122.806;2022-11-13T02:59:09;19.08;;;15.60;;
50851;SDS011;43953;45.508;-122.806;2022-11-13T02:59:40;16.67;;;14.88;;
50851;SDS011;43953;45.508;-122.806;2022-11-13T03:00:12;18.05;;;14.65;;
50851;SDS011;43953;45.508;-122.806;2022-11-13T03:00:44;19.35;;;15.75;;
50851;SDS011;43953;45.508;-122.806;2022-11-13T03:01:16;17.90;;;15.52;;
50851;SDS011;43953;45.508;-122.806;2022-11-13T03:01:48;16.83;;;14.68;;
50851;SDS011;43953;45.508;-122.806;2022-11-13T03:02:19;19.65;;;14.98;;
50851;SDS011;43953;45.508;-122.806;2022-11-13T03:02:51;16.73;;;13.90;;
50851;SDS011;43953;45.508;-122.806;2022-11-13T03:03:23;16.58;;;14.02;;
50851;SDS011;43953;45.508;-122.806;2022-11-13T03:03:55;18.20;;;14.48;;
50851;SDS011;43953;45.508;-122.806;2022-11-13T03:04:27;17.63;;;14.70;;
50851;SDS011;43953;45.508;-122.806;2022-11-13T03:04:58;16.35;;;14.20;;
50851;SDS011;43953;45.508;-122.806;2022-11-13T03:05:30;15.27;;;13.48;;
50851;SDS011;43953;45.508;-122.806;2022-11-13T03:06:02;16.58;;;13.95;;
50851;SDS011;43953;45.508;-122.806;2022-11-13T03:06:34;15.27;;;13.65;;
50851;SDS011;43953;45.508;-122.806;2022-11-13T03:07:05;15.63;;;13.60;;
50851;SDS011;43953;45.508;-122.806;2022-11-13T03:07:37;15.07;;;13.43;;
50851;SDS011;43953;45.508;-122.806;2022-11-13T03:08:09;18.92;;;14.20;;
50851;SDS011;43953;45.508;-122.806;2022-11-13T03:08:41;16.73;;;14.15;;
50851;SDS011;43953;45.508;-122.806;2022-11-13T03:09:12;16.42;;;14.50;;
50851;SDS011;43953;45.508;-122.806;2022-11-13T03:09:44;20.38;;;15.98;;
50851;SDS011;43953;45.508;-122.806;2022-11-13T03:10:16;17.98;;;15.82;;
50851;SDS011;43953;45.508;-122.806;2022-11-13T03:10:48;21.05;;;17.13;;
50851;SDS011;43953;45.508;-122.806;2022-11-13T03:11:20;22.92;;;17.75;;
50851;SDS011;43953;45.508;-122.806;2022-11-13T03:11:51;25.40;;;19.05;;
50851;SDS011;43953;45.508;-122.806;2022-11-13T03:12:23;22.02;;;18.58;;
50851;SDS011;43953;45.508;-122.806;2022-11-13T03:12:55;21.75;;;17.00;;
50851;SDS011;43953;45.508;-122.806;2022-11-13T03:13:29;22.48;;;17.25;;
50851;SDS011;43953;45.508;-122.806;2022-11-13T03:14:00;21.80;;;17.52;;
50851;SDS011;43953;45.508;-122.806;2022-11-13T03:14:32;23.67;;;18.33;;
50851;SDS011;43953;45.508;-122.806;2022-11-13T03:15:04;23.17;;;18.95;;